sensor_id;sensor_type;location;lat;lon;timestamp;P1;durP1;ratioP1;P2;durP2;ratioP2
42600;SDS011;28229;48.856;9.088;2022-12-18T00:02:06;51.53;;;23.70;;
42600;SDS011;28229;48.856;9.088;2022-12-18T00:04:31;50.23;;;22.57;;
42600;SDS011;28229;48.856;9.088;2022-12-18T00:06:57;51.70;;;23.87;;
42600;SDS011;28229;48.856;9.088;2022-12-18T00:09:23;48.40;;;23.10;;
42600;SDS011;28229;48.856;9.088;2022-12-18T00:11:49;43.50;;;22.70;;
42600;SDS011;28229;48.856;9.088;2022-12-18T00:14:15;45.40;;;21.70;;
42600;SDS011;28229;48.856;9.088;2022-12-18T00:16:42;47.90;;;20.00;;
42600;SDS011;28229;48.856;9.088;2022-12-18T00:19:10;47.97;;;21.67;;
42600;SDS011;28229;48.856;9.088;2022-12-18T00:21:36;47.90;;;21.47;;
42600;SDS011;28229;48.856;9.088;2022-12-18T00:24:08;48.73;;;21.90;;
42600;SDS011;28229;48.856;9.088;2022-12-18T00:26:35;50.20;;;23.57;;
42600;SDS011;28229;48.856;9.088;2022-12-18T00:29:12;56.43;;;24.60;;
42600;SDS011;28229;48.856;9.088;2022-12-18T00:31:42;49.20;;;22.13;;
42600;SDS011;28229;48.856;9.088;2022-12-18T00:34:12;51.63;;;23.50;;
42600;SDS011;28229;48.856;9.088;2022-12-18T00:36:39;45.60;;;20.53;;
42600;SDS011;28229;48.856;9.088;2022-12-18T00:39:06;44.50;;;20.73;;
42600;SDS011;28229;48.856;9.088;2022-12-18T00:41:32;46.07;;;21.27;;
42600;SDS011;28229;48.856;9.088;2022-12-18T00:44:17;42.73;;;19.90;;
42600;SDS011;28229;48.856;9.088;2022-12-18T00:46:44;49.23;;;20.57;;
42600;SDS011;28229;48.856;9.088;2022-12-18T00:49:11;46.17;;;21.07;;
42600;SDS011;28229;48.856;9.088;2022-12-18T00:51:39;44.80;;;19.03;;
42600;SDS011;28229;48.856;9.088;2022-12-18T00:54:11;44.30;;;18.77;;
42600;SDS011;28229;48.856;9.088;2022-12-18T00:56:37;38.30;;;18.40;;
42600;SDS011;28229;48.856;9.088;2022-12-18T00:59:04;45.57;;;19.90;;
42600;SDS011;28229;48.856;9.088;2022-12-18T01:01:30;46.00;;;20.43;;
42600;SDS011;28229;48.856;9.088;2022-12-18T01:03:58;43.13;;;19.10;;
42600;SDS011;28229;48.856;9.088;2022-12-18T01:06:32;40.90;;;19.03;;
42600;SDS011;28229;48.856;9.088;2022-12-18T01:08:58;46.47;;;19.90;;
42600;SDS011;28229;48.856;9.088;2022-12-18T01:11:24;43.27;;;18.37;;
42600;SDS011;28229;48.856;9.088;2022-12-18T01:13:51;45.50;;;21.33;;
42600;SDS011;28229;48.856;9.088;2022-12-18T01:16:18;48.83;;;20.47;;
42600;SDS011;28229;48.856;9.088;2022-12-18T01:18:44;45.60;;;19.50;;
42600;SDS011;28229;48.856;9.088;2022-12-18T01:21:12;48.40;;;19.97;;
42600;SDS011;28229;48.856;9.088;2022-12-18T01:23:41;46.23;;;21.17;;
42600;SDS011;28229;48.856;9.088;2022-12-18T01:26:14;39.70;;;19.57;;
42600;SDS011;28229;48.856;9.088;2022-12-18T01:28:41;45.80;;;19.23;;
42600;SDS011;28229;48.856;9.088;2022-12-18T01:31:11;42.60;;;19.53;;
42600;SDS011;28229;48.856;9.088;2022-12-18T01:33:37;42.73;;;19.30;;
42600;SDS011;28229;48.856;9.088;2022-12-18T01:36:03;43.73;;;19.83;;
42600;SDS011;28229;48.856;9.088;2022-12-18T01:38:28;45.70;;;19.77;;
42600;SDS011;28229;48.856;9.088;2022-12-18T01:40:58;47.73;;;20.70;;
42600;SDS011;28229;48.856;9.088;2022-12-18T01:46:14;56.57;;;23.90;;
42600;SDS011;28229;48.856;9.088;2022-12-18T01:48:40;55.83;;;23.70;;
42600;SDS011;28229;48.856;9.088;2022-12-18T01:51:08;51.40;;;22.73;;
42600;SDS011;28229;48.856;9.088;2022-12-18T01:53:36;49.67;;;21.17;;
42600;SDS011;28229;48.856;9.088;2022-12-18T01:56:04;53.60;;;22.43;;
42600;SDS011;28229;48.856;9.088;2022-12-18T02:01:20;49.60;;;23.43;;
42600;SDS011;28229;48.856;9.088;2022-12-18T02:03:51;49.50;;;21.93;;
42600;SDS011;28229;48.856;9.088;2022-12-18T02:06:31;51.80;;;24.60;;
42600;SDS011;28229;48.856;9.088;2022-12-18T02:09:13;51.97;;;24.03;;
42600;SDS011;28229;48.856;9.088;2022-12-18T02:17:55;51.50;;;24.47;;
42600;SDS011;28229;48.856;9.088;2022-12-18T02:20:34;57.73;;;26.53;;
42600;SDS011;28229;48.856;9.088;2022-12-18T02:28:52;52.97;;;26.03;;
42600;SDS011;28229;48.856;9.088;2022-12-18T02:31:26;46.80;;;23.97;;
42600;SDS011;28229;48.856;9.088;2022-12-18T02:33:59;53.67;;;25.67;;
42600;SDS011;28229;48.856;9.088;2022-12-18T02:36:33;50.53;;;24.50;;
42600;SDS011;28229;48.856;9.088;2022-12-18T02:39:02;53.27;;;25.00;;
42600;SDS011;28229;48.856;9.088;2022-12-18T02:41:30;57.53;;;25.53;;
42600;SDS011;28229;48.856;9.088;2022-12-18T02:43:58;48.77;;;23.50;;
42600;SDS011;28229;48.856;9.088;2022-12-18T02:46:29;52.40;;;25.53;;
42600;SDS011;28229;48.856;9.088;2022-12-18T02:49:03;50.83;;;24.03;;
42600;SDS011;28229;48.856;9.088;2022-12-18T02:51:48;47.43;;;24.07;;
42600;SDS011;28229;48.856;9.088;2022-12-18T02:54:36;55.10;;;24.63;;
42600;SDS011;28229;48.856;9.088;2022-12-18T02:57:27;47.40;;;23.47;;
42600;SDS011;28229;48.856;9.088;2022-12-18T03:00:08;45.73;;;21.50;;
42600;SDS011;28229;48.856;9.088;2022-12-18T03:05:16;47.27;;;23.10;;
42600;SDS011;28229;48.856;9.088;2022-12-18T03:07:51;49.57;;;22.50;;
42600;SDS011;28229;48.856;9.088;2022-12-18T03:10:28;49.13;;;22.43;;
42600;SDS011;28229;48.856;9.088;2022-12-18T03:13:11;51.67;;;22.97;;
42600;SDS011;28229;48.856;9.088;2022-12-18T03:15:43;46.73;;;22.47;;
42600;SDS011;28229;48.856;9.088;2022-12-18T03:18:17;48.73;;;22.83;;
42600;SDS011;28229;48.856;9.088;2022-12-18T03:20:47;50.47;;;22.33;;
42600;SDS011;28229;48.856;9.088;2022-12-18T03:23:21;43.37;;;19.47;;
42600;SDS011;28229;48.856;9.088;2022-12-18T03:25:51;47.17;;;19.03;;
42600;SDS011;28229;48.856;9.088;2022-12-18T03:28:22;43.60;;;19.57;;
42600;SDS011;28229;48.856;9.088;2022-12-18T03:30:55;42.10;;;18.27;;
42600;SDS011;28229;48.856;9.088;2022-12-18T03:33:25;42.93;;;18.47;;
42600;SDS011;28229;48.856;9.088;2022-12-18T03:35:53;43.50;;;18.13;;
42600;SDS011;28229;48.856;9.088;2022-12-18T03:38:20;44.23;;;19.80;;
42600;SDS011;28229;48.856;9.088;2022-12-18T03:40:59;40.20;;;19.77;;
42600;SDS011;28229;48.856;9.088;2022-12-18T03:43:49;40.10;;;17.63;;
42600;SDS011;28229;48.856;9.088;2022-12-18T03:46:30;45.33;;;18.17;;
42600;SDS011;28229;48.856;9.088;2022-12-18T03:52:13;43.00;;;19.53;;
42600;SDS011;28229;48.856;9.088;2022-12-18T03:54:42;43.60;;;19.47;;
42600;SDS011;28229;48.856;9.088;2022-12-18T03:57:18;43.93;;;20.20;;
42600;SDS011;28229;48.856;9.088;2022-12-18T03:59:50;41.77;;;17.87;;
42600;SDS011;28229;48.856;9.088;2022-12-18T04:02:23;45.57;;;19.67;;
42600;SDS011;28229;48.856;9.088;2022-12-18T04:04:51;48.27;;;20.30;;
42600;SDS011;28229;48.856;9.088;2022-12-18T04:07:19;39.60;;;18.50;;
42600;SDS011;28229;48.856;9.088;2022-12-18T04:09:48;46.70;;;18.93;;
42600;SDS011;28229;48.856;9.088;2022-12-18T04:12:17;45.40;;;20.17;;
42600;SDS011;28229;48.856;9.088;2022-12-18T04:14:45;42.20;;;19.73;;
42600;SDS011;28229;48.856;9.088;2022-12-18T04:17:11;43.40;;;20.17;;
42600;SDS011;28229;48.856;9.088;2022-12-18T04:19:36;48.53;;;19.37;;
42600;SDS011;28229;48.856;9.088;2022-12-18T04:22:03;52.70;;;20.30;;
42600;SDS011;28229;48.856;9.088;2022-12-18T04:24:34;46.43;;;19.40;;
42600;SDS011;28229;48.856;9.088;2022-12-18T04:27:07;48.87;;;20.50;;
42600;SDS011;28229;48.856;9.088;2022-12-18T04:29:39;47.13;;;19.40;;
42600;SDS011;28229;48.856;9.088;2022-12-18T04:32:05;46.90;;;20.13;;
42600;SDS011;28229;48.856;9.088;2022-12-18T04:34:32;53.20;;;19.80;;
42600;SDS011;28229;48.856;9.088;2022-12-18T04:36:58;48.27;;;19.37;;
42600;SDS011;28229;48.856;9.088;2022-12-18T04:39:25;45.83;;;20.77;;
42600;SDS011;28229;48.856;9.088;2022-12-18T04:41:54;57.90;;;23.33;;
42600;SDS011;28229;48.856;9.088;2022-12-18T04:44:19;51.53;;;20.83;;
42600;SDS011;28229;48.856;9.088;2022-12-18T04:46:45;57.20;;;21.77;;
42600;SDS011;28229;48.856;9.088;2022-12-18T04:49:11;53.63;;;21.60;;
42600;SDS011;28229;48.856;9.088;2022-12-18T04:51:37;44.83;;;19.00;;
42600;SDS011;28229;48.856;9.088;2022-12-18T04:54:04;41.97;;;18.27;;
42600;SDS011;28229;48.856;9.088;2022-12-18T04:56:30;43.70;;;18.27;;
42600;SDS011;28229;48.856;9.088;2022-12-18T04:58:57;43.60;;;19.07;;
42600;SDS011;28229;48.856;9.088;2022-12-18T05:01:23;45.33;;;18.47;;
42600;SDS011;28229;48.856;9.088;2022-12-18T05:03:50;41.00;;;17.57;;
42600;SDS011;28229;48.856;9.088;2022-12-18T05:06:17;45.27;;;18.47;;
42600;SDS011;28229;48.856;9.088;2022-12-18T05:08:42;38.20;;;17.53;;
42600;SDS011;28229;48.856;9.088;2022-12-18T05:11:10;41.30;;;18.20;;
42600;SDS011;28229;48.856;9.088;2022-12-18T05:13:37;41.30;;;18.67;;
42600;SDS011;28229;48.856;9.088;2022-12-18T05:16:04;41.40;;;18.43;;
42600;SDS011;28229;48.856;9.088;2022-12-18T05:18:30;45.83;;;18.37;;
42600;SDS011;28229;48.856;9.088;2022-12-18T05:20:56;43.43;;;18.83;;
42600;SDS011;28229;48.856;9.088;2022-12-18T05:23:22;46.73;;;18.77;;
42600;SDS011;28229;48.856;9.088;2022-12-18T05:25:57;40.77;;;17.53;;
42600;SDS011;28229;48.856;9.088;2022-12-18T05:28:25;41.10;;;18.60;;
42600;SDS011;28229;48.856;9.088;2022-12-18T05:30:56;40.57;;;17.87;;
42600;SDS011;28229;48.856;9.088;2022-12-18T05:33:24;36.30;;;16.10;;
42600;SDS011;28229;48.856;9.088;2022-12-18T05:35:55;38.03;;;17.70;;
42600;SDS011;28229;48.856;9.088;2022-12-18T05:38:24;36.47;;;16.67;;
42600;SDS011;28229;48.856;9.088;2022-12-18T05:40:51;40.80;;;17.00;;
42600;SDS011;28229;48.856;9.088;2022-12-18T05:43:17;38.77;;;17.93;;
42600;SDS011;28229;48.856;9.088;2022-12-18T05:45:44;37.67;;;18.03;;
42600;SDS011;28229;48.856;9.088;2022-12-18T05:48:13;39.10;;;18.40;;
42600;SDS011;28229;48.856;9.088;2022-12-18T05:50:40;33.17;;;17.07;;
42600;SDS011;28229;48.856;9.088;2022-12-18T05:53:09;40.60;;;17.90;;
42600;SDS011;28229;48.856;9.088;2022-12-18T05:55:35;34.50;;;16.23;;
42600;SDS011;28229;48.856;9.088;2022-12-18T05:58:02;35.53;;;16.73;;
42600;SDS011;28229;48.856;9.088;2022-12-18T06:00:28;36.10;;;16.57;;
42600;SDS011;28229;48.856;9.088;2022-12-18T06:02:55;37.07;;;17.13;;
42600;SDS011;28229;48.856;9.088;2022-12-18T06:05:21;38.73;;;17.53;;
42600;SDS011;28229;48.856;9.088;2022-12-18T06:07:47;36.87;;;16.10;;
42600;SDS011;28229;48.856;9.088;2022-12-18T06:10:12;36.80;;;16.70;;
42600;SDS011;28229;48.856;9.088;2022-12-18T06:12:38;39.13;;;16.93;;
42600;SDS011;28229;48.856;9.088;2022-12-18T06:15:04;35.70;;;16.70;;
42600;SDS011;28229;48.856;9.088;2022-12-18T06:17:30;38.17;;;16.93;;
42600;SDS011;28229;48.856;9.088;2022-12-18T06:19:57;34.53;;;15.57;;
42600;SDS011;28229;48.856;9.088;2022-12-18T06:22:23;36.50;;;16.17;;
42600;SDS011;28229;48.856;9.088;2022-12-18T06:24:49;35.97;;;16.73;;
42600;SDS011;28229;48.856;9.088;2022-12-18T06:27:15;33.83;;;16.53;;
42600;SDS011;28229;48.856;9.088;2022-12-18T06:29:41;36.13;;;15.90;;
42600;SDS011;28229;48.856;9.088;2022-12-18T06:32:07;33.73;;;15.83;;
42600;SDS011;28229;48.856;9.088;2022-12-18T06:34:34;37.70;;;16.73;;
42600;SDS011;28229;48.856;9.088;2022-12-18T06:37:02;28.63;;;14.90;;
42600;SDS011;28229;48.856;9.088;2022-12-18T06:39:28;36.90;;;17.17;;
42600;SDS011;28229;48.856;9.088;2022-12-18T06:41:54;37.37;;;16.47;;
42600;SDS011;28229;48.856;9.088;2022-12-18T06:44:20;36.00;;;16.87;;
42600;SDS011;28229;48.856;9.088;2022-12-18T06:46:45;32.10;;;15.50;;
42600;SDS011;28229;48.856;9.088;2022-12-18T06:49:11;32.87;;;15.77;;
42600;SDS011;28229;48.856;9.088;2022-12-18T06:51:37;39.53;;;16.93;;
42600;SDS011;28229;48.856;9.088;2022-12-18T06:54:03;42.27;;;17.80;;
42600;SDS011;28229;48.856;9.088;2022-12-18T06:56:29;31.77;;;14.77;;
42600;SDS011;28229;48.856;9.088;2022-12-18T06:58:55;34.83;;;15.73;;
42600;SDS011;28229;48.856;9.088;2022-12-18T07:01:21;35.07;;;16.03;;
42600;SDS011;28229;48.856;9.088;2022-12-18T07:03:51;36.20;;;16.37;;
42600;SDS011;28229;48.856;9.088;2022-12-18T07:06:19;34.90;;;16.10;;
42600;SDS011;28229;48.856;9.088;2022-12-18T07:08:47;35.10;;;16.10;;
42600;SDS011;28229;48.856;9.088;2022-12-18T07:11:14;34.93;;;16.07;;
42600;SDS011;28229;48.856;9.088;2022-12-18T07:13:40;38.90;;;16.10;;
42600;SDS011;28229;48.856;9.088;2022-12-18T07:16:10;34.57;;;16.20;;
42600;SDS011;28229;48.856;9.088;2022-12-18T07:18:37;32.53;;;15.93;;
42600;SDS011;28229;48.856;9.088;2022-12-18T07:21:07;35.83;;;16.67;;
42600;SDS011;28229;48.856;9.088;2022-12-18T07:23:38;34.67;;;16.67;;
42600;SDS011;28229;48.856;9.088;2022-12-18T07:26:04;33.37;;;16.13;;
42600;SDS011;28229;48.856;9.088;2022-12-18T07:28:33;35.33;;;16.27;;
42600;SDS011;28229;48.856;9.088;2022-12-18T07:31:06;32.77;;;15.63;;
42600;SDS011;28229;48.856;9.088;2022-12-18T07:33:33;33.63;;;15.90;;
42600;SDS011;28229;48.856;9.088;2022-12-18T07:36:00;35.00;;;16.07;;
42600;SDS011;28229;48.856;9.088;2022-12-18T07:38:31;32.00;;;14.83;;
42600;SDS011;28229;48.856;9.088;2022-12-18T07:41:05;36.20;;;16.63;;
42600;SDS011;28229;48.856;9.088;2022-12-18T07:43:38;30.77;;;15.47;;
42600;SDS011;28229;48.856;9.088;2022-12-18T07:46:05;35.00;;;16.37;;
42600;SDS011;28229;48.856;9.088;2022-12-18T07:48:32;34.63;;;15.33;;
42600;SDS011;28229;48.856;9.088;2022-12-18T07:51:01;32.70;;;16.30;;
42600;SDS011;28229;48.856;9.088;2022-12-18T07:53:29;36.80;;;18.03;;
42600;SDS011;28229;48.856;9.088;2022-12-18T07:55:56;35.93;;;18.03;;
42600;SDS011;28229;48.856;9.088;2022-12-18T07:58:22;42.33;;;19.03;;
42600;SDS011;28229;48.856;9.088;2022-12-18T08:00:48;33.50;;;16.87;;
42600;SDS011;28229;48.856;9.088;2022-12-18T08:03:14;37.90;;;17.43;;
42600;SDS011;28229;48.856;9.088;2022-12-18T08:05:40;29.33;;;14.93;;
42600;SDS011;28229;48.856;9.088;2022-12-18T08:08:06;36.93;;;15.43;;
42600;SDS011;28229;48.856;9.088;2022-12-18T08:10:32;35.43;;;16.00;;
42600;SDS011;28229;48.856;9.088;2022-12-18T08:12:57;34.10;;;17.43;;
42600;SDS011;28229;48.856;9.088;2022-12-18T08:15:23;42.30;;;20.93;;
42600;SDS011;28229;48.856;9.088;2022-12-18T08:17:49;31.13;;;16.57;;
42600;SDS011;28229;48.856;9.088;2022-12-18T08:20:15;33.20;;;15.80;;
42600;SDS011;28229;48.856;9.088;2022-12-18T08:22:41;34.20;;;17.17;;
42600;SDS011;28229;48.856;9.088;2022-12-18T08:25:07;33.27;;;15.50;;
42600;SDS011;28229;48.856;9.088;2022-12-18T08:27:33;35.47;;;17.03;;
42600;SDS011;28229;48.856;9.088;2022-12-18T08:29:59;30.77;;;15.70;;
42600;SDS011;28229;48.856;9.088;2022-12-18T08:32:25;34.80;;;16.77;;
42600;SDS011;28229;48.856;9.088;2022-12-18T08:34:52;40.53;;;19.50;;
42600;SDS011;28229;48.856;9.088;2022-12-18T08:37:18;34.70;;;18.90;;
42600;SDS011;28229;48.856;9.088;2022-12-18T08:39:44;38.83;;;19.60;;
42600;SDS011;28229;48.856;9.088;2022-12-18T08:42:10;40.23;;;19.90;;
42600;SDS011;28229;48.856;9.088;2022-12-18T08:44:54;39.00;;;19.73;;
42600;SDS011;28229;48.856;9.088;2022-12-18T08:47:20;37.47;;;19.00;;
42600;SDS011;28229;48.856;9.088;2022-12-18T08:49:46;35.53;;;18.57;;
42600;SDS011;28229;48.856;9.088;2022-12-18T08:52:15;33.80;;;17.33;;
42600;SDS011;28229;48.856;9.088;2022-12-18T08:54:40;34.93;;;16.90;;
42600;SDS011;28229;48.856;9.088;2022-12-18T08:57:06;35.67;;;17.70;;
42600;SDS011;28229;48.856;9.088;2022-12-18T08:59:32;37.87;;;18.43;;
42600;SDS011;28229;48.856;9.088;2022-12-18T09:01:58;38.43;;;18.90;;
42600;SDS011;28229;48.856;9.088;2022-12-18T09:04:24;37.57;;;19.00;;
42600;SDS011;28229;48.856;9.088;2022-12-18T09:06:49;37.17;;;17.80;;
42600;SDS011;28229;48.856;9.088;2022-12-18T09:09:15;34.83;;;18.43;;
42600;SDS011;28229;48.856;9.088;2022-12-18T09:11:41;36.87;;;18.83;;
42600;SDS011;28229;48.856;9.088;2022-12-18T09:14:07;39.37;;;19.23;;
42600;SDS011;28229;48.856;9.088;2022-12-18T09:16:35;38.13;;;19.33;;
42600;SDS011;28229;48.856;9.088;2022-12-18T09:19:01;44.27;;;20.57;;
42600;SDS011;28229;48.856;9.088;2022-12-18T09:21:30;39.80;;;20.70;;
42600;SDS011;28229;48.856;9.088;2022-12-18T09:23:57;37.60;;;20.13;;
42600;SDS011;28229;48.856;9.088;2022-12-18T09:26:24;43.60;;;21.23;;
42600;SDS011;28229;48.856;9.088;2022-12-18T09:28:51;36.13;;;19.03;;
42600;SDS011;28229;48.856;9.088;2022-12-18T09:31:17;36.03;;;19.53;;
42600;SDS011;28229;48.856;9.088;2022-12-18T09:33:46;38.27;;;18.80;;
42600;SDS011;28229;48.856;9.088;2022-12-18T09:36:13;35.63;;;18.47;;
42600;SDS011;28229;48.856;9.088;2022-12-18T09:38:41;38.27;;;19.30;;
42600;SDS011;28229;48.856;9.088;2022-12-18T09:41:19;36.60;;;18.93;;
42600;SDS011;28229;48.856;9.088;2022-12-18T09:43:49;36.47;;;18.10;;
42600;SDS011;28229;48.856;9.088;2022-12-18T09:46:31;36.87;;;18.67;;
42600;SDS011;28229;48.856;9.088;2022-12-18T09:49:01;36.97;;;17.77;;
42600;SDS011;28229;48.856;9.088;2022-12-18T09:51:39;36.07;;;18.20;;
42600;SDS011;28229;48.856;9.088;2022-12-18T09:54:12;35.73;;;17.47;;
42600;SDS011;28229;48.856;9.088;2022-12-18T09:56:42;35.80;;;18.47;;
42600;SDS011;28229;48.856;9.088;2022-12-18T09:59:20;37.90;;;18.30;;
42600;SDS011;28229;48.856;9.088;2022-12-18T10:01:47;34.87;;;18.07;;
42600;SDS011;28229;48.856;9.088;2022-12-18T10:04:12;40.17;;;19.63;;
42600;SDS011;28229;48.856;9.088;2022-12-18T10:06:40;38.50;;;19.40;;
42600;SDS011;28229;48.856;9.088;2022-12-18T10:09:27;35.23;;;18.63;;
42600;SDS011;28229;48.856;9.088;2022-12-18T10:12:07;34.73;;;18.20;;
42600;SDS011;28229;48.856;9.088;2022-12-18T10:14:57;32.77;;;19.27;;
42600;SDS011;28229;48.856;9.088;2022-12-18T10:19:59;31.53;;;17.73;;
42600;SDS011;28229;48.856;9.088;2022-12-18T10:22:43;34.30;;;18.23;;
42600;SDS011;28229;48.856;9.088;2022-12-18T10:25:28;34.00;;;17.83;;
42600;SDS011;28229;48.856;9.088;2022-12-18T10:27:59;33.20;;;18.30;;
42600;SDS011;28229;48.856;9.088;2022-12-18T10:30:35;31.10;;;17.10;;
42600;SDS011;28229;48.856;9.088;2022-12-18T10:33:01;34.50;;;18.70;;
42600;SDS011;28229;48.856;9.088;2022-12-18T10:35:37;32.50;;;17.37;;
42600;SDS011;28229;48.856;9.088;2022-12-18T10:40:52;30.50;;;17.20;;
42600;SDS011;28229;48.856;9.088;2022-12-18T10:43:36;28.50;;;17.13;;
42600;SDS011;28229;48.856;9.088;2022-12-18T10:48:33;29.50;;;17.43;;
42600;SDS011;28229;48.856;9.088;2022-12-18T10:51:05;29.40;;;16.47;;
42600;SDS011;28229;48.856;9.088;2022-12-18T10:53:34;38.40;;;19.83;;
42600;SDS011;28229;48.856;9.088;2022-12-18T10:56:02;28.23;;;17.40;;
42600;SDS011;28229;48.856;9.088;2022-12-18T10:58:31;40.33;;;22.13;;
42600;SDS011;28229;48.856;9.088;2022-12-18T11:03:39;31.00;;;17.47;;
42600;SDS011;28229;48.856;9.088;2022-12-18T11:06:08;29.97;;;17.60;;
42600;SDS011;28229;48.856;9.088;2022-12-18T11:11:30;31.17;;;17.63;;
42600;SDS011;28229;48.856;9.088;2022-12-18T11:14:05;28.43;;;16.87;;
42600;SDS011;28229;48.856;9.088;2022-12-18T11:16:45;28.10;;;16.47;;
42600;SDS011;28229;48.856;9.088;2022-12-18T11:19:20;27.73;;;17.60;;
42600;SDS011;28229;48.856;9.088;2022-12-18T11:21:51;29.03;;;17.53;;
42600;SDS011;28229;48.856;9.088;2022-12-18T11:24:19;32.07;;;18.07;;
42600;SDS011;28229;48.856;9.088;2022-12-18T11:26:49;29.60;;;18.20;;
42600;SDS011;28229;48.856;9.088;2022-12-18T11:29:16;27.30;;;17.10;;
42600;SDS011;28229;48.856;9.088;2022-12-18T11:31:43;27.33;;;17.13;;
42600;SDS011;28229;48.856;9.088;2022-12-18T11:34:10;28.93;;;17.77;;
42600;SDS011;28229;48.856;9.088;2022-12-18T11:36:46;31.47;;;18.33;;
42600;SDS011;28229;48.856;9.088;2022-12-18T11:42:12;30.30;;;17.30;;
42600;SDS011;28229;48.856;9.088;2022-12-18T11:45:02;31.60;;;17.57;;
42600;SDS011;28229;48.856;9.088;2022-12-18T11:47:49;28.23;;;17.50;;
42600;SDS011;28229;48.856;9.088;2022-12-18T11:50:24;31.23;;;17.50;;
42600;SDS011;28229;48.856;9.088;2022-12-18T11:52:55;28.10;;;17.30;;
42600;SDS011;28229;48.856;9.088;2022-12-18T12:09:04;27.00;;;15.80;;
42600;SDS011;28229;48.856;9.088;2022-12-18T12:22:29;27.30;;;16.13;;
42600;SDS011;28229;48.856;9.088;2022-12-18T12:27:39;28.50;;;16.10;;
42600;SDS011;28229;48.856;9.088;2022-12-18T12:30:18;30.33;;;16.63;;
42600;SDS011;28229;48.856;9.088;2022-12-18T12:35:35;34.23;;;16.33;;
42600;SDS011;28229;48.856;9.088;2022-12-18T12:41:01;29.67;;;15.97;;
42600;SDS011;28229;48.856;9.088;2022-12-18T12:46:13;27.93;;;15.50;;
42600;SDS011;28229;48.856;9.088;2022-12-18T12:48:42;29.90;;;16.57;;
42600;SDS011;28229;48.856;9.088;2022-12-18T12:51:19;31.53;;;16.20;;
42600;SDS011;28229;48.856;9.088;2022-12-18T12:53:47;33.90;;;17.77;;
42600;SDS011;28229;48.856;9.088;2022-12-18T12:56:15;29.43;;;16.07;;
42600;SDS011;28229;48.856;9.088;2022-12-18T13:01:39;35.53;;;16.83;;
42600;SDS011;28229;48.856;9.088;2022-12-18T13:12:54;27.63;;;15.47;;
42600;SDS011;28229;48.856;9.088;2022-12-18T13:25:52;30.17;;;16.03;;
42600;SDS011;28229;48.856;9.088;2022-12-18T13:28:21;28.80;;;16.00;;
42600;SDS011;28229;48.856;9.088;2022-12-18T13:31:06;29.53;;;15.50;;
42600;SDS011;28229;48.856;9.088;2022-12-18T13:41:39;34.63;;;18.83;;
42600;SDS011;28229;48.856;9.088;2022-12-18T13:44:11;33.50;;;18.00;;
42600;SDS011;28229;48.856;9.088;2022-12-18T13:46:50;31.50;;;16.57;;
42600;SDS011;28229;48.856;9.088;2022-12-18T13:49:25;31.33;;;17.60;;
42600;SDS011;28229;48.856;9.088;2022-12-18T13:51:57;29.97;;;17.77;;
42600;SDS011;28229;48.856;9.088;2022-12-18T13:54:33;29.13;;;17.33;;
42600;SDS011;28229;48.856;9.088;2022-12-18T13:57:27;32.53;;;17.70;;
42600;SDS011;28229;48.856;9.088;2022-12-18T13:59:53;31.90;;;17.20;;
42600;SDS011;28229;48.856;9.088;2022-12-18T14:02:23;33.23;;;19.17;;
42600;SDS011;28229;48.856;9.088;2022-12-18T14:04:50;31.97;;;16.87;;
42600;SDS011;28229;48.856;9.088;2022-12-18T14:07:18;30.90;;;17.20;;
42600;SDS011;28229;48.856;9.088;2022-12-18T14:09:47;29.97;;;16.73;;
42600;SDS011;28229;48.856;9.088;2022-12-18T14:12:17;34.03;;;16.37;;
42600;SDS011;28229;48.856;9.088;2022-12-18T14:15:14;28.77;;;15.27;;
42600;SDS011;28229;48.856;9.088;2022-12-18T14:17:45;27.93;;;15.80;;
42600;SDS011;28229;48.856;9.088;2022-12-18T14:20:14;34.40;;;18.50;;
42600;SDS011;28229;48.856;9.088;2022-12-18T14:22:45;31.00;;;17.40;;
42600;SDS011;28229;48.856;9.088;2022-12-18T14:27:43;30.93;;;18.00;;
42600;SDS011;28229;48.856;9.088;2022-12-18T14:33:02;30.87;;;17.17;;
42600;SDS011;28229;48.856;9.088;2022-12-18T14:35:37;31.87;;;17.37;;
42600;SDS011;28229;48.856;9.088;2022-12-18T14:40:52;33.77;;;18.03;;
42600;SDS011;28229;48.856;9.088;2022-12-18T14:43:19;36.40;;;18.43;;
42600;SDS011;28229;48.856;9.088;2022-12-18T14:45:45;34.17;;;17.67;;
42600;SDS011;28229;48.856;9.088;2022-12-18T14:48:19;34.90;;;19.43;;
42600;SDS011;28229;48.856;9.088;2022-12-18T14:50:58;36.50;;;19.37;;
42600;SDS011;28229;48.856;9.088;2022-12-18T14:56:30;32.80;;;17.77;;
42600;SDS011;28229;48.856;9.088;2022-12-18T15:01:33;35.10;;;18.53;;
42600;SDS011;28229;48.856;9.088;2022-12-18T15:04:03;33.47;;;17.73;;
42600;SDS011;28229;48.856;9.088;2022-12-18T15:06:31;33.00;;;17.87;;
42600;SDS011;28229;48.856;9.088;2022-12-18T15:08:59;33.60;;;17.77;;
42600;SDS011;28229;48.856;9.088;2022-12-18T15:17:19;37.43;;;18.70;;
42600;SDS011;28229;48.856;9.088;2022-12-18T15:19:48;39.60;;;19.97;;
42600;SDS011;28229;48.856;9.088;2022-12-18T15:22:17;40.37;;;20.47;;
42600;SDS011;28229;48.856;9.088;2022-12-18T15:24:45;45.63;;;23.07;;
42600;SDS011;28229;48.856;9.088;2022-12-18T15:32:33;40.80;;;21.60;;
42600;SDS011;28229;48.856;9.088;2022-12-18T15:35:20;51.00;;;24.80;;
42600;SDS011;28229;48.856;9.088;2022-12-18T15:37:49;56.30;;;26.83;;
42600;SDS011;28229;48.856;9.088;2022-12-18T15:40:17;49.37;;;24.27;;
42600;SDS011;28229;48.856;9.088;2022-12-18T15:42:44;49.20;;;25.03;;
42600;SDS011;28229;48.856;9.088;2022-12-18T15:45:30;46.27;;;24.10;;
42600;SDS011;28229;48.856;9.088;2022-12-18T15:47:56;51.63;;;23.57;;
42600;SDS011;28229;48.856;9.088;2022-12-18T15:50:22;44.93;;;22.43;;
42600;SDS011;28229;48.856;9.088;2022-12-18T15:52:48;46.80;;;23.93;;
42600;SDS011;28229;48.856;9.088;2022-12-18T15:55:17;43.93;;;22.43;;
42600;SDS011;28229;48.856;9.088;2022-12-18T15:58:04;48.30;;;23.37;;
42600;SDS011;28229;48.856;9.088;2022-12-18T16:00:31;43.93;;;24.20;;
42600;SDS011;28229;48.856;9.088;2022-12-18T16:02:59;45.33;;;22.90;;
42600;SDS011;28229;48.856;9.088;2022-12-18T16:05:26;46.60;;;23.37;;
42600;SDS011;28229;48.856;9.088;2022-12-18T16:07:52;44.33;;;23.73;;
42600;SDS011;28229;48.856;9.088;2022-12-18T16:10:19;49.17;;;23.03;;
42600;SDS011;28229;48.856;9.088;2022-12-18T16:12:45;50.27;;;23.70;;
42600;SDS011;28229;48.856;9.088;2022-12-18T16:15:14;44.40;;;21.77;;
42600;SDS011;28229;48.856;9.088;2022-12-18T16:17:42;46.40;;;23.30;;
42600;SDS011;28229;48.856;9.088;2022-12-18T16:20:12;47.03;;;22.93;;
42600;SDS011;28229;48.856;9.088;2022-12-18T16:22:41;48.30;;;22.90;;
42600;SDS011;28229;48.856;9.088;2022-12-18T16:25:14;45.33;;;22.63;;
42600;SDS011;28229;48.856;9.088;2022-12-18T16:27:44;46.43;;;22.47;;
42600;SDS011;28229;48.856;9.088;2022-12-18T16:30:16;44.13;;;21.13;;
42600;SDS011;28229;48.856;9.088;2022-12-18T16:32:44;46.07;;;22.67;;
42600;SDS011;28229;48.856;9.088;2022-12-18T16:35:11;41.47;;;21.53;;
42600;SDS011;28229;48.856;9.088;2022-12-18T16:37:38;42.90;;;20.90;;
42600;SDS011;28229;48.856;9.088;2022-12-18T16:40:05;47.77;;;22.07;;
42600;SDS011;28229;48.856;9.088;2022-12-18T16:42:34;45.93;;;23.07;;
42600;SDS011;28229;48.856;9.088;2022-12-18T16:45:02;45.00;;;21.63;;
42600;SDS011;28229;48.856;9.088;2022-12-18T16:47:28;50.23;;;23.37;;